Time;durP1;ratioP1;P1;durP2;ratioP2;P2;SDS_P1;SDS_P2;PMS_P1;PMS_P2;Temp;Humidity;BMP_temperature;BMP_pressure;BME280_temperature;BME280_humidity;BME280_pressure;Samples;Min_cycle;Max_cycle;Signal;HPM_P1;HPM_P2
2021/11/15 00:00:18;;;;;;;19.77;8.40;;;6.40;99.90;6.40;97461.00;;;;5053238;28;20200;-78
2021/11/15 00:03:07;;;;;;;17.90;11.10;;;6.40;99.90;6.40;97455.00;;;;5051136;28;20208;-78
2021/11/15 00:05:56;;;;;;;16.13;9.50;;;6.40;99.90;6.30;97463.00;;;;5044856;28;20228;-79
2021/11/15 00:08:45;;;;;;;20.80;9.80;;;6.40;99.90;6.30;97458.00;;;;5042158;28;20201;-78
2021/11/15 00:11:35;;;;;;;21.80;10.80;;;6.40;99.90;6.30;97463.00;;;;5054414;28;20228;-79
2021/11/15 00:14:25;;;;;;;20.40;9.90;;;6.40;99.90;6.30;97471.00;;;;5053469;28;20205;-78
2021/11/15 00:17:14;;;;;;;19.93;10.43;;;6.40;99.90;6.30;97458.00;;;;5055515;28;20201;-78
2021/11/15 00:20:04;;;;;;;21.23;10.17;;;6.40;99.90;6.40;97458.00;;;;5044723;28;20247;-78
2021/11/15 00:22:53;;;;;;;18.80;10.83;;;6.40;99.90;6.40;97468.00;;;;5051538;28;20215;-78
2021/11/15 00:25:42;;;;;;;20.43;10.20;;;6.40;99.90;6.40;97458.00;;;;5052586;28;20224;-77
2021/11/15 00:28:31;;;;;;;19.00;11.17;;;6.40;99.90;6.30;97464.00;;;;5051000;28;20219;-77
2021/11/15 00:31:22;;;;;;;18.10;9.97;;;6.40;99.90;6.20;97459.00;;;;5050694;28;20225;-79
2021/11/15 00:34:11;;;;;;;19.60;9.60;;;6.40;99.90;6.20;97466.00;;;;5048240;28;20219;-77
2021/11/15 00:37:00;;;;;;;20.07;9.87;;;6.30;99.90;6.30;97468.00;;;;5051959;28;20208;-78
2021/11/15 00:39:48;;;;;;;21.63;9.83;;;6.30;99.90;6.30;97476.00;;;;5051927;28;20208;-77
2021/11/15 00:42:38;;;;;;;17.77;10.90;;;6.30;99.90;6.30;97477.00;;;;5042306;28;20224;-78
2021/11/15 00:45:27;;;;;;;22.37;10.40;;;6.30;99.90;6.40;97480.00;;;;5046915;28;20204;-77
2021/11/15 00:48:17;;;;;;;20.40;10.77;;;6.30;99.90;6.40;97490.00;;;;5041082;28;20192;-77
2021/11/15 00:51:07;;;;;;;18.90;10.20;;;6.40;99.90;6.40;97484.00;;;;5045127;28;20228;-78
2021/11/15 00:53:57;;;;;;;21.43;11.60;;;6.40;99.90;6.40;97490.00;;;;5051738;28;20204;-78
2021/11/15 00:56:46;;;;;;;25.43;11.13;;;6.40;99.90;6.40;97490.00;;;;5053619;28;20227;-77
2021/11/15 00:59:34;;;;;;;27.50;11.73;;;6.40;99.90;6.40;97491.00;;;;5050785;28;20208;-78
2021/11/15 01:02:23;;;;;;;24.77;11.13;;;6.40;99.90;6.40;97498.00;;;;5042195;28;20223;-77
2021/11/15 01:05:14;;;;;;;23.10;11.90;;;6.40;99.90;6.40;97497.00;;;;5052661;28;20199;-78
2021/11/15 01:08:04;;;;;;;21.20;9.57;;;6.40;99.90;6.40;97500.00;;;;5053115;28;20228;-78
2021/11/15 01:10:54;;;;;;;20.40;9.93;;;6.40;99.90;6.40;97500.00;;;;5054265;28;20224;-78
2021/11/15 01:13:43;;;;;;;21.13;9.93;;;6.40;99.90;6.40;97493.00;;;;5039918;28;20208;-78
2021/11/15 01:16:31;;;;;;;17.53;9.70;;;6.40;99.90;6.40;97491.00;;;;5042806;28;20571;-78
2021/11/15 01:19:21;;;;;;;24.07;11.60;;;6.40;99.90;6.40;97504.00;;;;5046680;28;20196;-77
2021/11/15 01:22:11;;;;;;;28.37;13.17;;;6.40;99.90;6.40;97501.00;;;;5049217;28;20228;-77
2021/11/15 01:25:00;;;;;;;23.37;12.40;;;6.40;99.90;6.40;97502.00;;;;5052972;28;20209;-77
2021/11/15 01:27:49;;;;;;;30.27;13.93;;;6.40;99.90;6.40;97514.00;;;;5051852;28;20225;-77
2021/11/15 01:30:39;;;;;;;36.37;13.17;;;6.40;99.90;6.40;97527.00;;;;5050654;28;20211;-77
2021/11/15 01:33:28;;;;;;;22.43;13.83;;;6.40;99.90;6.40;97524.00;;;;5040816;28;20220;-78
2021/11/15 01:36:16;;;;;;;32.83;13.93;;;6.40;99.90;6.40;97522.00;;;;5049579;28;20220;-78
2021/11/15 01:39:07;;;;;;;28.87;13.50;;;6.40;99.90;6.40;97517.00;;;;5050477;28;20200;-76
2021/11/15 01:41:56;;;;;;;27.17;13.30;;;6.40;99.90;6.40;97510.00;;;;5051439;28;20733;-77
2021/11/15 01:44:45;;;;;;;28.30;13.47;;;6.40;99.90;6.40;97504.00;;;;5050384;28;20196;-79
2021/11/15 01:47:35;;;;;;;38.13;14.63;;;6.40;99.90;6.40;97500.00;;;;5049592;28;20247;-79
2021/11/15 01:50:25;;;;;;;26.00;11.00;;;6.40;99.90;6.30;97500.00;;;;5056207;28;20193;-77
2021/11/15 01:53:14;;;;;;;22.90;11.07;;;6.40;99.90;6.20;97500.00;;;;5058360;28;20201;-79
2021/11/15 01:56:05;;;;;;;28.53;10.33;;;6.40;99.90;6.10;97495.00;;;;5059212;28;20200;-77
2021/11/15 01:58:54;;;;;;;14.47;8.63;;;6.40;99.90;6.10;97499.00;;;;5055744;28;20216;-78
2021/11/15 02:01:44;;;;;;;23.73;9.33;;;6.30;99.90;6.10;97502.00;;;;5058099;28;20228;-77
2021/11/15 02:04:33;;;;;;;17.77;7.73;;;6.30;99.90;6.10;97504.00;;;;5058754;28;20219;-79
2021/11/15 02:07:22;;;;;;;12.20;9.33;;;6.30;99.90;6.10;97502.00;;;;5059626;28;20231;-78
2021/11/15 02:10:13;;;;;;;22.87;8.90;;;6.30;99.90;6.10;97493.00;;;;5058217;28;20211;-78
2021/11/15 02:13:04;;;;;;;24.33;9.67;;;6.20;99.90;6.10;97496.00;;;;5057193;28;20271;-79
2021/11/15 02:15:53;;;;;;;22.60;10.10;;;6.20;99.90;6.10;97495.00;;;;5056585;28;20209;-79
2021/11/15 02:18:42;;;;;;;20.50;8.47;;;6.20;99.90;6.10;97481.00;;;;5059061;28;20208;-77
2021/11/15 02:21:32;;;;;;;19.73;9.23;;;6.20;99.90;5.90;97490.00;;;;5058833;28;20229;-79
2021/11/15 02:24:23;;;;;;;15.13;7.37;;;6.20;99.90;5.90;97488.00;;;;5061384;28;20208;-80
2021/11/15 02:27:12;;;;;;;19.57;7.60;;;6.20;99.90;6.00;97488.00;;;;5062341;28;20488;-79
2021/11/15 02:30:01;;;;;;;18.40;7.57;;;6.20;99.90;6.00;97485.00;;;;5062038;28;20586;-79
2021/11/15 02:32:50;;;;;;;15.83;8.30;;;6.10;99.90;6.00;97488.00;;;;5049316;28;20204;-79
2021/11/15 02:35:40;;;;;;;17.50;8.83;;;6.10;99.90;6.00;97491.00;;;;5064149;28;20212;-78
2021/11/15 02:38:30;;;;;;;18.00;7.13;;;6.10;99.90;5.90;97490.00;;;;5059621;28;20213;-79
2021/11/15 02:41:20;;;;;;;20.43;8.53;;;6.20;99.90;6.00;97482.00;;;;5059534;28;20221;-78
2021/11/15 02:44:10;;;;;;;13.30;6.93;;;6.10;99.90;6.00;97484.00;;;;5056566;28;20702;-77
2021/11/15 02:46:58;;;;;;;11.73;7.77;;;6.10;99.90;6.00;97490.00;;;;5057325;28;20225;-78
2021/11/15 02:49:48;;;;;;;18.07;7.70;;;6.10;99.90;6.00;97492.00;;;;5057586;28;20201;-79
2021/11/15 02:52:37;;;;;;;18.33;7.37;;;6.10;99.90;6.00;97496.00;;;;5045690;28;20221;-78
2021/11/15 02:55:29;;;;;;;23.13;8.87;;;6.10;99.90;6.10;97499.00;;;;5056706;28;20200;-79
2021/11/15 02:58:18;;;;;;;13.50;7.23;;;6.10;99.90;6.10;97492.00;;;;5049566;28;20209;-78
2021/11/15 03:01:11;;;;;;;15.00;7.10;;;6.10;99.90;6.10;97493.00;;;;5044241;28;20225;-78
2021/11/15 03:03:59;;;;;;;12.27;6.77;;;6.20;99.90;6.20;97500.00;;;;5039285;28;20243;-78
2021/11/15 03:06:48;;;;;;;11.73;6.93;;;6.20;99.90;6.20;97497.00;;;;5051722;28;20208;-77
2021/11/15 03:09:39;;;;;;;15.70;7.57;;;6.20;99.90;6.30;97498.00;;;;5051972;28;20578;-79
2021/11/15 03:12:33;;;;;;;12.17;7.50;;;6.20;99.90;6.30;97496.00;;;;5051783;28;20247;-78
2021/11/15 03:15:26;;;;;;;15.00;7.80;;;6.20;99.90;6.30;97497.00;;;;5052268;28;20188;-79
2021/11/15 03:18:19;;;;;;;18.57;7.57;;;6.20;99.90;6.30;97496.00;;;;5051056;28;20205;-78
2021/11/15 03:21:11;;;;;;;15.80;7.27;;;6.30;99.90;6.30;97490.00;;;;5051487;28;20235;-77
2021/11/15 03:24:02;;;;;;;18.80;7.87;;;6.30;99.90;6.30;97496.00;;;;5051796;28;20614;-77
2021/11/15 03:26:51;;;;;;;12.17;6.77;;;6.30;99.90;6.30;97500.00;;;;5050668;28;20201;-78
2021/11/15 03:29:41;;;;;;;13.20;6.97;;;6.30;99.90;6.30;97495.00;;;;5051819;28;20691;-78
2021/11/15 03:32:30;;;;;;;14.10;7.07;;;6.30;99.90;6.30;97492.00;;;;5040369;28;20733;-78
2021/11/15 03:35:19;;;;;;;15.90;6.33;;;6.30;99.90;6.30;97503.00;;;;5054083;28;20204;-78
2021/11/15 03:38:09;;;;;;;12.93;6.90;;;6.30;99.90;6.20;97496.00;;;;5052578;28;20213;-78
2021/11/15 03:40:58;;;;;;;12.43;6.80;;;6.30;99.90;6.30;97498.00;;;;5050552;28;20572;-79
2021/11/15 03:43:47;;;;;;;13.37;6.17;;;6.30;99.90;6.20;97495.00;;;;5051168;28;20212;-76
2021/11/15 03:46:38;;;;;;;15.63;6.40;;;6.30;99.90;6.30;97497.00;;;;5050418;28;20207;-78
2021/11/15 03:49:27;;;;;;;15.23;6.43;;;6.30;99.90;6.30;97501.00;;;;5052393;28;20211;-78
2021/11/15 03:52:16;;;;;;;12.63;6.67;;;6.30;99.90;6.30;97502.00;;;;5051783;28;20228;-77
2021/11/15 03:55:06;;;;;;;15.67;6.87;;;6.30;99.90;6.30;97509.00;;;;5052599;28;20200;-78
2021/11/15 03:57:55;;;;;;;14.07;6.13;;;6.30;99.90;6.20;97503.00;;;;5052135;28;20440;-77
2021/11/15 04:00:44;;;;;;;17.47;7.80;;;6.30;99.90;6.20;97509.00;;;;5038883;28;20216;-78
2021/11/15 04:03:37;;;;;;;11.87;6.70;;;6.30;99.90;6.20;97509.00;;;;5051282;28;20196;-77
2021/11/15 04:06:30;;;;;;;15.70;7.40;;;6.30;99.90;6.20;97504.00;;;;5053116;28;20579;-79
2021/11/15 04:09:19;;;;;;;13.63;6.80;;;6.30;99.90;6.20;97504.00;;;;5051734;28;20220;-78
2021/11/15 04:12:09;;;;;;;18.77;7.03;;;6.30;99.90;6.20;97509.00;;;;5041321;28;20232;-79
2021/11/15 04:14:58;;;;;;;13.00;6.07;;;6.30;99.90;6.30;97511.00;;;;5052061;28;20219;-79
2021/11/15 04:17:49;;;;;;;11.80;6.13;;;6.30;99.90;6.30;97505.00;;;;5049822;28;20204;-78
2021/11/15 04:20:40;;;;;;;15.70;7.37;;;6.30;99.90;6.30;97490.00;;;;5051322;28;20211;-78
2021/11/15 04:23:29;;;;;;;15.03;7.33;;;6.30;99.90;6.30;97490.00;;;;5050615;28;20201;-77
2021/11/15 04:26:18;;;;;;;11.33;7.40;;;6.30;99.90;6.30;97481.00;;;;5050526;28;20209;-77
2021/11/15 04:29:07;;;;;;;12.63;7.07;;;6.30;99.90;6.30;97481.00;;;;5049490;28;20228;-78
2021/11/15 04:31:55;;;;;;;24.97;10.33;;;6.30;99.90;6.30;97491.00;;;;5040467;28;20505;-78
2021/11/15 04:34:44;;;;;;;11.77;7.50;;;6.30;99.90;6.30;97479.00;;;;5032545;28;20258;-78
2021/11/15 04:37:35;;;;;;;12.73;6.03;;;6.30;99.90;6.30;97479.00;;;;5052209;28;20205;-77
2021/11/15 04:40:24;;;;;;;15.20;6.27;;;6.30;99.90;6.30;97479.00;;;;5064649;28;20208;-78
2021/11/15 04:43:13;;;;;;;8.10;5.23;;;6.30;99.90;6.30;97476.00;;;;5058654;28;20216;-78
2021/11/15 04:46:02;;;;;;;10.47;5.47;;;6.30;99.90;6.30;97472.00;;;;5045070;28;20205;-77
2021/11/15 04:48:51;;;;;;;10.93;5.50;;;6.30;99.90;6.20;97479.00;;;;5044733;28;20227;-78
2021/11/15 04:51:40;;;;;;;12.17;5.37;;;6.30;99.90;6.20;97478.00;;;;5045548;28;20224;-77
2021/11/15 04:54:30;;;;;;;11.73;5.83;;;6.30;99.90;6.20;97472.00;;;;5045608;28;20211;-78
2021/11/15 04:57:19;;;;;;;8.50;5.23;;;6.30;99.90;6.30;97467.00;;;;5044966;28;20215;-77
2021/11/15 05:00:12;;;;;;;9.90;4.73;;;6.30;99.90;6.30;97472.00;;;;5044132;28;20215;-77
2021/11/15 05:03:01;;;;;;;10.07;5.43;;;6.30;99.90;6.20;97475.00;;;;5044084;28;20204;-78
2021/11/15 05:05:50;;;;;;;11.80;6.10;;;6.30;99.90;6.20;97471.00;;;;5045149;28;20226;-79
2021/11/15 05:08:38;;;;;;;10.27;5.73;;;6.30;99.90;6.20;97474.00;;;;5060002;28;20217;-75
2021/11/15 05:11:29;;;;;;;16.90;6.77;;;6.30;99.90;6.20;97480.00;;;;5045404;28;20228;-78
2021/11/15 05:14:17;;;;;;;15.00;5.83;;;6.30;99.90;6.10;97492.00;;;;5043358;28;20609;-77
2021/11/15 05:17:06;;;;;;;9.23;6.27;;;6.20;99.90;6.10;97483.00;;;;5037299;28;20208;-76
2021/11/15 05:19:55;;;;;;;11.17;6.47;;;6.20;99.90;6.20;97489.00;;;;5039134;28;20677;-74
2021/11/15 05:22:44;;;;;;;10.10;5.83;;;6.20;99.90;6.30;97488.00;;;;5044520;28;20583;-75
2021/11/15 05:25:33;;;;;;;10.43;6.53;;;6.20;99.90;6.30;97485.00;;;;5044906;28;20576;-75
2021/11/15 05:28:24;;;;;;;11.10;5.80;;;6.20;99.90;6.30;97490.00;;;;5045561;28;20223;-77
2021/11/15 05:31:12;;;;;;;15.60;7.23;;;6.30;99.90;6.30;97499.00;;;;5042834;28;20216;-77
2021/11/15 05:34:02;;;;;;;16.87;6.03;;;6.30;99.90;6.30;97494.00;;;;5044544;28;20193;-78
2021/11/15 05:36:51;;;;;;;10.13;6.73;;;6.30;99.90;6.30;97510.00;;;;5057801;28;20193;-79
2021/11/15 05:39:39;;;;;;;13.17;6.67;;;6.30;99.90;6.20;97498.00;;;;5049518;28;20208;-77
2021/11/15 05:42:28;;;;;;;16.27;6.83;;;6.30;99.90;6.20;97512.00;;;;5053200;28;20224;-77
2021/11/15 05:45:18;;;;;;;13.87;6.40;;;6.30;99.90;6.20;97502.00;;;;5053354;28;20205;-77
2021/11/15 05:48:07;;;;;;;10.03;6.83;;;6.30;99.90;6.30;97493.00;;;;5051236;28;20196;-79
2021/11/15 05:50:56;;;;;;;13.23;8.17;;;6.30;99.90;6.30;97514.00;;;;5048190;28;20220;-78
2021/11/15 05:53:46;;;;;;;17.83;6.67;;;6.30;99.90;6.30;97505.00;;;;5057706;28;20205;-77
2021/11/15 05:56:35;;;;;;;14.40;6.53;;;6.30;99.90;6.30;97519.00;;;;5056025;28;20227;-78
2021/11/15 05:59:25;;;;;;;13.03;5.70;;;6.30;99.90;6.30;97518.00;;;;5044624;28;20212;-78
2021/11/15 06:02:15;;;;;;;12.37;6.30;;;6.30;99.90;6.20;97527.00;;;;5055378;28;20698;-78
2021/11/15 06:05:06;;;;;;;9.33;6.93;;;6.30;99.90;6.20;97524.00;;;;5054789;28;20205;-78
2021/11/15 06:07:56;;;;;;;16.13;7.20;;;6.30;99.90;6.10;97537.00;;;;5058573;28;20193;-78
2021/11/15 06:10:46;;;;;;;13.73;7.40;;;6.30;99.90;6.20;97533.00;;;;5050712;28;20229;-79
2021/11/15 06:13:35;;;;;;;14.77;7.73;;;6.30;99.90;6.20;97538.00;;;;5051150;28;20213;-77
2021/11/15 06:16:24;;;;;;;11.83;6.40;;;6.30;99.90;6.20;97535.00;;;;5057364;28;20200;-78
2021/11/15 06:19:14;;;;;;;11.10;6.73;;;6.30;99.90;6.20;97530.00;;;;5057424;28;20196;-77
2021/11/15 06:22:04;;;;;;;12.77;7.10;;;6.30;99.90;6.30;97535.00;;;;5056474;28;20742;-77
2021/11/15 06:24:53;;;;;;;12.93;7.20;;;6.30;99.90;6.20;97533.00;;;;5063204;28;20208;-77
2021/11/15 06:27:42;;;;;;;15.90;6.50;;;6.30;99.90;6.20;97536.00;;;;5053407;28;20204;-77
2021/11/15 06:30:31;;;;;;;10.30;6.23;;;6.30;99.90;6.20;97545.00;;;;5050453;28;20236;-77
2021/11/15 06:33:20;;;;;;;10.17;6.17;;;6.30;99.90;6.20;97557.00;;;;5049419;28;20193;-75
2021/11/15 06:36:10;;;;;;;14.50;7.67;;;6.30;99.90;6.20;97548.00;;;;5050766;28;20204;-77
2021/11/15 06:39:00;;;;;;;13.83;5.17;;;6.30;99.90;6.30;97548.00;;;;5052979;28;20212;-77
2021/11/15 06:41:52;;;;;;;9.33;5.13;;;6.30;99.90;6.30;97561.00;;;;5050810;28;20699;-77
2021/11/15 06:44:41;;;;;;;10.13;6.03;;;6.30;99.90;6.40;97547.00;;;;5052113;28;20205;-79
2021/11/15 06:47:33;;;;;;;10.23;5.53;;;6.40;99.90;6.50;97550.00;;;;5052030;28;20201;-78
2021/11/15 06:50:22;;;;;;;10.27;6.03;;;6.40;99.90;6.40;97563.00;;;;5053679;28;20251;-77
2021/11/15 06:53:12;;;;;;;9.80;5.67;;;6.40;99.90;6.50;97552.00;;;;5052378;28;20201;-77
2021/11/15 06:56:01;;;;;;;7.77;5.10;;;6.40;99.90;6.50;97556.00;;;;5054428;28;20208;-78
2021/11/15 06:58:50;;;;;;;9.83;5.73;;;6.40;99.90;6.60;97559.00;;;;5056308;28;20789;-78
2021/11/15 07:01:39;;;;;;;11.80;7.43;;;6.50;99.90;6.60;97560.00;;;;5055204;28;20225;-78
2021/11/15 07:04:28;;;;;;;10.53;6.23;;;6.50;99.90;6.50;97561.00;;;;5056208;28;20195;-77
2021/11/15 07:07:17;;;;;;;11.57;6.60;;;6.60;99.90;6.60;97560.00;;;;5066554;28;20205;-77
2021/11/15 07:10:11;;;;;;;9.57;7.17;;;6.60;99.90;6.70;97570.00;;;;5068125;28;20213;-78
2021/11/15 07:13:00;;;;;;;11.03;6.60;;;6.60;99.90;6.60;97572.00;;;;5064421;28;20212;-79
2021/11/15 07:15:50;;;;;;;8.90;6.67;;;6.40;99.90;6.50;97558.00;;;;5062119;28;20208;-78
2021/11/15 07:18:39;;;;;;;9.13;5.70;;;6.60;99.90;6.50;97564.00;;;;5061230;28;20215;-76
2021/11/15 07:21:28;;;;;;;8.73;6.07;;;6.60;99.90;6.60;97571.00;;;;5040728;28;20233;-79
2021/11/15 07:24:17;;;;;;;8.90;6.37;;;6.60;99.90;6.60;97568.00;;;;5059400;28;20692;-79
2021/11/15 07:27:08;;;;;;;9.23;6.30;;;6.70;99.90;6.70;97576.00;;;;5061771;28;20200;-78
2021/11/15 07:29:57;;;;;;;10.23;6.53;;;6.70;99.90;6.70;97574.00;;;;5058199;28;20220;-76
2021/11/15 07:32:47;;;;;;;10.47;6.53;;;6.70;99.90;6.60;97574.00;;;;5045337;28;20223;-76
2021/11/15 07:35:36;;;;;;;12.60;8.17;;;6.70;99.90;6.60;97579.00;;;;5060075;28;20208;-78
2021/11/15 07:38:25;;;;;;;9.27;6.17;;;6.70;99.90;6.50;97579.00;;;;5063535;28;20215;-77
2021/11/15 07:41:14;;;;;;;14.97;5.50;;;6.70;99.90;6.50;97589.00;;;;5063221;28;20224;-77
2021/11/15 07:44:04;;;;;;;8.20;5.47;;;6.70;99.90;6.50;97592.00;;;;5063002;28;20212;-79
2021/11/15 07:46:53;;;;;;;10.63;6.30;;;6.70;99.90;6.50;97596.00;;;;5061452;28;20216;-78
2021/11/15 07:49:42;;;;;;;13.17;7.13;;;6.60;99.90;6.60;97594.00;;;;5053570;28;20240;-78
2021/11/15 07:52:32;;;;;;;9.33;6.30;;;6.70;99.90;6.60;97586.00;;;;5063872;28;20232;-79
2021/11/15 07:55:21;;;;;;;11.03;5.97;;;6.70;99.90;6.80;97588.00;;;;5062851;28;20219;-78
2021/11/15 07:58:11;;;;;;;10.67;5.70;;;6.70;99.90;6.90;97586.00;;;;5062717;28;20220;-79
2021/11/15 08:01:01;;;;;;;9.53;5.83;;;6.80;99.90;7.00;97591.00;;;;5063059;28;20231;-79
2021/11/15 08:03:50;;;;;;;13.97;7.27;;;6.80;99.90;7.10;97588.00;;;;5061357;28;20697;-78
2021/11/15 08:06:39;;;;;;;12.60;6.80;;;6.90;99.90;7.30;97596.00;;;;5053042;28;20202;-77
2021/11/15 08:09:28;;;;;;;12.93;8.10;;;7.00;99.90;7.50;97597.00;;;;5061416;28;20232;-76
2021/11/15 08:12:20;;;;;;;9.57;7.27;;;7.10;99.90;7.50;97603.00;;;;5059533;28;20240;-76
2021/11/15 08:15:13;;;;;;;15.03;8.57;;;7.20;99.90;7.50;97601.00;;;;5059938;28;20212;-78
2021/11/15 08:18:05;;;;;;;13.87;7.57;;;7.40;99.90;7.70;97601.00;;;;5062765;28;20205;-78
2021/11/15 08:20:55;;;;;;;14.27;7.80;;;7.40;99.90;8.00;97606.00;;;;5061496;28;20220;-79
2021/11/15 08:23:47;;;;;;;9.00;6.90;;;7.50;99.90;8.20;97608.00;;;;5051975;28;20200;-77
2021/11/15 08:26:46;;;;;;;13.80;7.17;;;7.70;99.90;8.20;97606.00;;;;5048625;28;20205;-78
2021/11/15 08:29:43;;;;;;;8.37;6.47;;;7.80;99.90;8.30;97606.00;;;;5061474;28;20227;-77
2021/11/15 08:32:32;;;;;;;10.83;6.50;;;7.90;99.90;8.20;97608.00;;;;5058419;28;20233;-78
2021/11/15 08:35:25;;;;;;;11.67;7.27;;;8.00;99.90;8.10;97609.00;;;;5052190;28;20210;-77
2021/11/15 08:38:42;;;;;;;10.87;7.53;;;8.00;99.90;8.40;97614.00;;;;5062225;28;20223;-77
2021/11/15 08:41:36;;;;;;;10.13;6.23;;;8.10;99.90;8.50;97605.00;;;;5061818;28;20238;-78
2021/11/15 08:44:28;;;;;;;8.27;6.07;;;8.20;99.90;8.20;97604.00;;;;5062760;28;20204;-78
2021/11/15 08:47:17;;;;;;;7.80;6.03;;;8.20;99.90;8.50;97617.00;;;;5060270;28;20216;-77
2021/11/15 08:50:07;;;;;;;8.83;6.43;;;8.20;99.90;8.70;97610.00;;;;5061912;28;20570;-77
2021/11/15 08:52:58;;;;;;;9.60;6.13;;;8.30;99.90;8.80;97612.00;;;;5053502;28;20201;-76
2021/11/15 08:55:47;;;;;;;9.53;6.23;;;8.40;99.90;8.80;97606.00;;;;5050643;28;20703;-78
2021/11/15 08:58:36;;;;;;;8.37;6.30;;;8.50;99.90;8.90;97609.00;;;;5059582;28;20327;-76
2021/11/15 09:01:26;;;;;;;12.67;6.27;;;8.60;99.90;9.00;97618.00;;;;5045355;28;20737;-76
2021/11/15 09:04:16;;;;;;;9.73;5.73;;;8.70;99.90;9.10;97612.00;;;;5038973;28;20197;-76
2021/11/15 09:07:06;;;;;;;8.67;6.47;;;8.80;99.90;9.00;97604.00;;;;5041123;28;20197;-76
2021/11/15 09:09:56;;;;;;;7.73;5.87;;;9.00;99.90;9.30;97611.00;;;;5044661;28;20220;-76
2021/11/15 09:12:46;;;;;;;10.10;5.67;;;9.10;99.90;9.40;97614.00;;;;5045645;28;20224;-76
2021/11/15 09:15:35;;;;;;;9.20;6.17;;;9.20;99.90;9.40;97616.00;;;;5044962;28;20544;-75
2021/11/15 09:18:24;;;;;;;9.03;6.17;;;9.20;99.90;9.60;97621.00;;;;5045939;28;20219;-76
2021/11/15 09:21:15;;;;;;;6.77;5.67;;;9.30;99.90;9.60;97615.00;;;;5032519;28;20801;-76
2021/11/15 09:24:05;;;;;;;7.40;5.67;;;9.40;99.90;9.80;97615.00;;;;5044411;28;20703;-76
2021/11/15 09:26:56;;;;;;;8.10;4.93;;;9.50;99.90;9.60;97616.00;;;;5040853;28;20667;-76
2021/11/15 09:29:48;;;;;;;6.47;5.07;;;9.60;99.90;9.40;97618.00;;;;5042405;28;20201;-75
2021/11/15 09:32:38;;;;;;;9.37;5.93;;;9.60;99.90;9.50;97616.00;;;;5041058;28;20688;-76
2021/11/15 09:35:27;;;;;;;7.17;5.43;;;9.60;99.90;9.60;97631.00;;;;5040241;28;20676;-76
2021/11/15 09:38:18;;;;;;;7.53;5.43;;;9.50;99.90;9.80;97630.00;;;;5032659;28;20747;-76
2021/11/15 09:41:08;;;;;;;8.33;5.60;;;9.60;99.90;10.00;97633.00;;;;5044313;28;20224;-76
2021/11/15 09:43:58;;;;;;;5.87;5.27;;;9.50;99.90;9.90;97642.00;;;;5045627;28;20207;-76
2021/11/15 09:46:47;;;;;;;5.93;5.33;;;9.60;99.90;9.90;97642.00;;;;5043595;28;20582;-76
2021/11/15 09:49:37;;;;;;;5.90;4.70;;;9.60;99.90;9.80;97632.00;;;;5045115;28;20710;-75
2021/11/15 09:52:25;;;;;;;6.87;5.20;;;9.60;99.90;9.90;97638.00;;;;5032211;28;20224;-76
2021/11/15 09:55:16;;;;;;;9.93;6.23;;;9.60;99.90;9.90;97638.00;;;;5044912;28;20208;-76
2021/11/15 09:58:05;;;;;;;7.43;5.60;;;9.60;99.90;10.00;97638.00;;;;5044827;28;20204;-76
2021/11/15 10:00:56;;;;;;;6.73;5.40;;;9.60;99.90;10.10;97642.00;;;;5046659;28;20272;-76
2021/11/15 10:03:45;;;;;;;9.00;5.37;;;9.70;99.90;10.00;97648.00;;;;5036547;28;20199;-75
2021/11/15 10:06:34;;;;;;;7.63;6.57;;;9.70;99.90;10.00;97652.00;;;;5044612;28;20207;-76
2021/11/15 10:09:27;;;;;;;7.87;6.00;;;9.70;99.90;10.00;97651.00;;;;5041696;28;20208;-75
2021/11/15 10:12:17;;;;;;;17.13;7.00;;;9.70;99.90;9.90;97650.00;;;;5048970;28;20239;-75
2021/11/15 10:15:08;;;;;;;8.33;5.83;;;9.80;99.90;9.90;97642.00;;;;5035615;28;20205;-76
2021/11/15 10:17:58;;;;;;;6.80;5.60;;;9.70;99.90;10.00;97640.00;;;;5047913;28;20583;-76
2021/11/15 10:20:50;;;;;;;9.10;7.20;;;9.70;99.90;10.00;97638.00;;;;5048969;28;20228;-75
2021/11/15 10:23:45;;;;;;;12.27;6.83;;;9.70;99.90;10.10;97629.00;;;;5048110;28;20215;-76
2021/11/15 10:26:38;;;;;;;12.20;8.90;;;9.80;99.90;10.10;97623.00;;;;5048371;28;20683;-76
2021/11/15 10:29:33;;;;;;;14.90;10.87;;;9.80;99.90;10.20;97635.00;;;;5048673;28;20211;-76
2021/11/15 10:32:28;;;;;;;18.63;14.90;;;9.80;99.90;10.10;97629.00;;;;5047317;28;20706;-76
2021/11/15 10:35:19;;;;;;;13.67;10.47;;;9.80;99.90;10.20;97637.00;;;;5040356;28;20564;-76
2021/11/15 10:38:07;;;;;;;21.50;15.87;;;9.90;99.90;10.20;97627.00;;;;5036600;28;20192;-76
2021/11/15 10:41:18;;;;;;;17.07;12.57;;;9.90;99.90;10.30;97618.00;;;;5046518;28;20229;-76
2021/11/15 10:44:10;;;;;;;11.90;9.63;;;9.90;99.90;10.30;97632.00;;;;5047814;28;20203;-76
2021/11/15 10:46:59;;;;;;;15.00;10.37;;;10.00;99.90;10.30;97625.00;;;;5047655;28;20580;-76
2021/11/15 10:49:48;;;;;;;12.47;8.80;;;10.00;99.90;10.30;97627.00;;;;5047071;28;20193;-76
2021/11/15 10:52:42;;;;;;;14.77;9.43;;;10.00;99.90;10.30;97620.00;;;;5047970;28;20232;-75
2021/11/15 10:55:36;;;;;;;11.33;9.63;;;10.00;99.90;10.30;97613.00;;;;5046737;28;20565;-76
2021/11/15 10:58:25;;;;;;;10.80;9.73;;;10.10;99.90;10.20;97615.00;;;;5046830;28;20262;-76
2021/11/15 11:01:16;;;;;;;10.00;8.50;;;10.00;99.90;10.30;97609.00;;;;5047379;28;20224;-75
2021/11/15 11:04:09;;;;;;;17.60;10.33;;;10.10;99.90;10.30;97614.00;;;;5034763;28;20197;-77
2021/11/15 11:07:03;;;;;;;15.30;10.47;;;10.10;99.90;10.30;97615.00;;;;5054441;28;20204;-78
2021/11/15 11:10:01;;;;;;;11.73;9.67;;;10.00;99.90;10.40;97603.00;;;;5054666;28;20196;-78
2021/11/15 11:12:59;;;;;;;14.17;10.93;;;10.10;99.90;10.40;97617.00;;;;5054894;28;20233;-78
2021/11/15 11:15:50;;;;;;;10.00;9.03;;;10.10;99.90;10.40;97614.00;;;;5055988;28;20201;-78
2021/11/15 11:18:42;;;;;;;10.60;9.53;;;10.10;99.90;10.40;97614.00;;;;5042073;28;20791;-77
2021/11/15 11:24:40;;;;;;;9.70;7.97;;;10.10;99.90;10.50;97616.00;;;;5055827;28;20205;-79
2021/11/15 11:27:31;;;;;;;10.43;8.37;;;10.20;99.90;10.70;97614.00;;;;5061417;28;20205;-76
2021/11/15 11:30:20;;;;;;;12.83;8.87;;;10.20;99.90;10.70;97619.00;;;;5057156;28;20668;-77
2021/11/15 11:33:11;;;;;;;11.97;9.10;;;10.30;99.90;10.70;97608.00;;;;5051416;28;20209;-78
2021/11/15 11:36:02;;;;;;;9.43;8.37;;;10.30;99.90;10.70;97609.00;;;;5054362;28;20209;-78
2021/11/15 11:38:52;;;;;;;12.77;9.00;;;10.40;99.90;10.70;97617.00;;;;5052080;28;20205;-76
2021/11/15 11:41:44;;;;;;;11.13;8.70;;;10.40;99.90;10.70;97614.00;;;;5045686;28;20228;-76
2021/11/15 11:44:35;;;;;;;12.80;9.47;;;10.40;99.90;10.80;97622.00;;;;5044197;28;20200;-76
2021/11/15 11:47:27;;;;;;;9.50;7.83;;;10.40;99.90;10.70;97626.00;;;;5042854;28;20308;-76
2021/11/15 11:50:16;;;;;;;12.40;9.67;;;10.40;99.90;10.60;97622.00;;;;5046334;28;20203;-76
2021/11/15 11:53:06;;;;;;;13.20;9.60;;;10.40;99.90;10.70;97617.00;;;;5046024;28;20228;-76
2021/11/15 11:55:56;;;;;;;13.13;9.43;;;10.40;99.90;10.70;97618.00;;;;5034067;28;20573;-75
2021/11/15 11:58:47;;;;;;;15.93;10.77;;;10.40;99.90;10.80;97616.00;;;;5046173;28;20209;-76
2021/11/15 12:01:38;;;;;;;16.47;11.53;;;10.40;99.90;10.80;97617.00;;;;5036201;28;20232;-75
2021/11/15 12:04:29;;;;;;;17.07;12.07;;;10.40;99.90;10.70;97610.00;;;;5037200;28;20228;-75
2021/11/15 12:07:31;;;;;;;16.70;11.93;;;10.50;99.90;10.70;97614.00;;;;5042081;28;20193;-75
2021/11/15 12:10:41;;;;;;;15.30;11.00;;;10.40;99.90;10.70;97616.00;;;;5042809;28;20196;-77
2021/11/15 12:13:31;;;;;;;16.50;11.93;;;10.50;99.90;10.70;97609.00;;;;5050293;28;20215;-76
2021/11/15 12:16:21;;;;;;;17.50;10.60;;;10.40;99.90;10.80;97613.00;;;;5050540;28;20193;-77
2021/11/15 12:19:11;;;;;;;18.40;10.10;;;10.50;99.90;10.70;97608.00;;;;5053984;28;20205;-78
2021/11/15 12:22:11;;;;;;;16.03;11.17;;;10.50;99.90;10.70;97603.00;;;;5038926;28;20227;-78
2021/11/15 12:25:11;;;;;;;17.93;13.77;;;10.40;99.90;10.60;97605.00;;;;5054980;28;20577;-76
2021/11/15 12:28:02;;;;;;;12.80;9.80;;;10.40;99.90;10.50;97611.00;;;;5049354;28;20224;-77
2021/11/15 12:30:51;;;;;;;12.50;9.87;;;10.30;99.90;10.60;97602.00;;;;5048477;28;20707;-77
2021/11/15 12:33:41;;;;;;;14.13;11.10;;;10.30;99.90;10.60;97600.00;;;;5038444;28;20236;-77
2021/11/15 12:36:40;;;;;;;17.67;10.33;;;10.30;99.90;10.50;97616.00;;;;5050637;28;20675;-77
2021/11/15 12:39:31;;;;;;;12.83;11.27;;;10.30;99.90;10.50;97610.00;;;;5053714;28;20200;-78
2021/11/15 12:42:28;;;;;;;13.10;9.87;;;10.30;99.90;10.40;97604.00;;;;5052735;28;20313;-78
2021/11/15 12:45:22;;;;;;;13.60;10.57;;;10.30;99.90;10.30;97602.00;;;;5049287;28;20200;-76